Date,TemperatureHighF,TemperatureAvgF,TemperatureLowF,DewpointHighF,DewpointAvgF,DewpointLowF,HumidityHigh,HumidityAvg,HumidityLow,PressureMaxIn,PressureMinIn,WindSpeedMaxMPH,WindSpeedAvgMPH,GustSpeedMaxMPH,PrecipitationSumIn
2013-1-1,11.0,2.7,-7.0,1.0,-3.5,-12.0,84,75,61,0.00,40.00,7,3,10,0.00
2013-1-2,24.0,16.8,5.0,15.0,9.2,-1.0,84,72,52,0.00,40.00,11,6,16,0.00
2013-1-3,24.0,19.3,11.0,19.0,14.6,7.0,87,82,79,0.00,40.00,13,8,19,0.00
2013-1-4,27.0,15.4,6.0,17.0,9.6,2.0,88,78,65,0.00,40.00,12,7,17,0.00
2013-1-5,34.0,23.1,10.0,33.0,19.8,7.0,99,88,76,0.00,40.00,12,7,19,0.00
2013-1-6,34.0,24.9,14.0,33.0,20.4,12.0,95,83,69,0.00,40.00,14,8,22,0.00
2013-1-7,34.0,23.7,11.0,25.0,17.6,8.0,94,78,61,0.00,40.00,19,9,26,0.00
2013-1-8,37.0,30.8,23.0,31.0,26.1,22.0,99,83,69,0.00,40.00,15,8,23,0.00
2013-1-9,38.0,33.0,23.0,31.0,26.0,17.0,88,75,58,0.00,40.00,18,10,27,0.00
2013-1-10,38.0,31.1,19.0,36.0,25.6,16.0,99,81,63,0.00,40.00,20,10,29,0.13
2013-1-11,44.0,38.8,35.0,36.0,-90.0,-99.9,100,7,99,0.00,40.00,16,8,27,0.17
2013-1-12,46.0,35.1,23.0,43.0,12.8,-99.9,100,67,64,0.00,40.00,18,13,30,0.01
2013-1-13,23.0,16.7,13.0,15.0,8.2,3.0,74,69,59,0.00,40.00,17,12,25,0.00
2013-1-14,23.0,13.4,6.0,10.0,5.0,1.0,80,69,52,0.00,40.00,17,7,25,0.00
2013-1-15,29.0,17.9,11.0,14.0,9.8,6.0,85,71,48,0.00,40.00,11,6,19,0.00
2013-1-16,31.0,24.0,15.0,29.0,17.7,9.0,94,77,64,0.00,40.00,17,10,26,0.00
2013-1-17,24.0,16.9,9.0,16.0,5.3,-1.0,77,61,41,0.00,40.00,13,7,20,0.00
2013-1-18,40.0,26.4,8.0,32.0,19.7,3.0,86,76,63,0.00,40.00,21,10,36,0.00
2013-1-19,42.0,34.8,13.0,33.0,27.5,-1.0,94,76,42,0.00,40.00,30,11,49,0.00
2013-1-20,13.0,8.4,5.0,-1.0,-3.4,-6.0,69,58,44,0.00,40.00,25,12,42,0.00
2013-1-21,8.0,1.0,-6.0,-3.0,-11.0,-18.0,69,56,44,0.00,40.00,19,14,29,0.00
2013-1-22,4.0,-2.4,-8.0,-9.0,-13.9,-18.0,65,57,48,0.00,40.00,13,9,24,0.00
2013-1-23,16.0,8.9,-1.0,11.0,0.7,-9.0,82,69,51,0.00,40.00,19,8,35,0.00
2013-1-24,15.0,6.1,-2.0,9.0,-3.6,-10.0,82,64,56,0.00,40.00,15,6,23,0.00
2013-1-25,22.0,18.0,13.0,16.0,10.8,3.0,86,73,51,0.00,40.00,13,10,20,0.00
2013-1-26,24.0,14.6,2.0,12.0,6.6,-2.0,83,71,57,0.00,40.00,10,4,16,0.00
2013-1-27,32.0,27.2,22.0,32.0,7.9,-99.9,100,69,58,0.00,40.00,15,12,32,0.09
2013-1-28,36.0,33.7,32.0,35.0,-27.0,-99.9,99,51,85,0.00,40.00,13,6,19,0.03
2013-1-29,53.0,42.0,35.0,35.0,-90.1,-99.9,97,7,96,0.00,40.00,17,9,26,1.00
2013-1-30,36.0,27.4,15.0,23.0,-72.6,-99.9,100,22,88,0.00,40.00,19,14,30,0.37
2013-1-31,12.0,7.9,0.0,5.0,0.6,-7.0,81,71,63,0.00,40.00,17,15,26,0.02